Kathy Azlin — WDH4252 — position and weather

sailwx.info

Track history (hours):
 
Tides and Currents Weather Stations Pressure Air Temp Water Temp Dewpoint Dewpoint Depression Visibility Wind Speed Wind Dir Waves Ship Positions

Kathy Azlin

Owner: Mganolia Marine Traqnsport Company, Vicksburg, MS. More information available from US FCC via Universal Licensing System and Coast Guard Vessel Documentation Center.

Last reported at 2018-May-13 21:40 UTC. Time now 2018-Jun-25 05:44 UTC.
Position N 39°02' W 090°35'.
Warning: this ship's position is 42 days out of date.

Length 33 m; draft 2.8 m.

Type: Towing. MMSI: 367615770.

Date/timePositionNaut miles runAvg speedWind from/ knotsBaromVisibWave heightAir tempDewpointWater temp
2018-May-13 21:40N 39°02' W 090°35'1 3.3
2018-May-13 21:30N 39°02' W 090°35'4 6.7
2018-May-13 20:58N 38°59' W 090°33'3 5.8
2018-May-13 20:30N 38°58' W 090°30'3 6.2
2018-May-13 20:00N 38°58' W 090°26'1 2.1
2018-May-13 19:30N 38°58' W 090°25'1 2.7
2018-May-13 18:59N 38°57' W 090°23'2 4.4
2018-May-13 18:28N 38°56' W 090°20'2 5.2
2018-May-13 18:00N 38°55' W 090°18'3 5.1
2018-May-13 17:30N 38°55' W 090°14'2 4.9
2018-May-13 17:00N 38°54' W 090°12'2 4.9
2018-May-13 16:30N 38°52' W 090°09'1 1.2
2018-May-13 16:00N 38°52' W 090°09'2 3.4
2018-May-13 15:30N 38°51' W 090°07'0 0.1
2018-May-13 15:00N 38°51' W 090°07'0 0.0
2018-May-13 14:30N 38°51' W 090°07'0 0.0
2018-May-13 14:00N 38°51' W 090°07'0 0.0
2018-May-13 13:30N 38°51' W 090°07'0 0.0
2018-May-13 12:59N 38°51' W 090°07'0 0.1
2018-May-13 12:30N 38°51' W 090°07'0 0.1
2018-May-13 12:00N 38°51' W 090°07'0 0.2
2018-May-13 11:30N 38°51' W 090°07'0 0.7
2018-May-13 11:00N 38°51' W 090°07'1 2.2
2018-May-13 10:29N 38°50' W 090°06'0 0.0
2018-May-13 09:59N 38°50' W 090°06'0 0.0
2018-May-13 09:30N 38°50' W 090°06'0 0.1
2018-May-13 09:00N 38°50' W 090°06'0 0.0
2018-May-13 08:30N 38°50' W 090°06'0 0.0
2018-May-13 08:00N 38°50' W 090°06'0 0.0
2018-May-13 07:30N 38°50' W 090°06'0 0.0
2018-May-13 07:00N 38°50' W 090°06'0 0.0
2018-May-13 06:30N 38°50' W 090°06'0 0.0
2018-May-13 06:00N 38°50' W 090°06'0 0.0
2018-May-13 05:30N 38°50' W 090°06'0 0.0
2018-May-13 05:00N 38°50' W 090°06'0 0.0
2018-May-13 04:30N 38°50' W 090°06'0 0.0
2018-May-13 04:00N 38°50' W 090°06'0 0.0
2018-May-13 03:30N 38°50' W 090°06'0 0.0
2018-May-13 03:00N 38°50' W 090°06'0 0.0
2018-May-13 02:30N 38°50' W 090°06'1 1.1
2018-May-13 01:44N 38°51' W 090°07'0 0.7
2018-May-13 01:30N 38°51' W 090°07'1 1.3
2018-May-13 00:50N 38°50' W 090°06'0 0.0
2018-May-13 00:30N 38°50' W 090°06'0 0.0
2018-May-13 00:00N 38°50' W 090°06'0 0.0
2018-May-12 23:30N 38°50' W 090°06'0 0.1
2018-May-12 23:00N 38°50' W 090°06'0 0.0
2018-May-12 22:28N 38°50' W 090°06'0 0.0
2018-May-12 22:00N 38°50' W 090°06'0 0.0
2018-May-12 21:29N 38°50' W 090°06'0 0.0
2018-May-12 21:00N 38°50' W 090°06'0 0.0
2018-May-12 20:30N 38°50' W 090°06'0 0.0
2018-May-12 20:00N 38°50' W 090°06'0 0.0
2018-May-12 19:30N 38°50' W 090°06'0 0.0
2018-May-12 18:57N 38°50' W 090°06'0 0.0
2018-May-12 18:27N 38°50' W 090°06'0 0.0
2018-May-12 17:53N 38°50' W 090°06'0 0.0
2018-May-12 17:30N 38°50' W 090°06'0 0.0
2018-May-12 16:59N 38°50' W 090°06'0 0.0
2018-May-12 16:30N 38°50' W 090°06'0 0.8
2018-May-12 16:00N 38°51' W 090°07'0 0.9
2018-May-12 15:30N 38°51' W 090°07'1 1.7
2018-May-12 14:59N 38°50' W 090°06'0 0.1
2018-May-12 14:29N 38°50' W 090°06'0 0.0
2018-May-12 13:59N 38°50' W 090°06'0 0.0
2018-May-12 13:29N 38°50' W 090°06'0 0.0
2018-May-12 13:00N 38°50' W 090°06'0 0.0
2018-May-12 12:27N 38°50' W 090°06'0 0.0
2018-May-12 11:59N 38°50' W 090°06'0 0.0
2018-May-12 11:30N 38°50' W 090°06'0 0.0
2018-May-12 11:00N 38°50' W 090°06'0 0.0
2018-May-12 10:27N 38°50' W 090°06'0 0.0
2018-May-12 09:59N 38°50' W 090°06'0 0.0
2018-May-12 09:29N 38°50' W 090°06'0 0.0
2018-May-12 08:59N 38°50' W 090°06'0 0.0
2018-May-12 08:30N 38°50' W 090°06'0 0.0
2018-May-12 08:00N 38°50' W 090°06'0 0.0
2018-May-12 07:29N 38°50' W 090°06'0 0.0
2018-May-12 07:00N 38°50' W 090°06'0 0.0
2018-May-12 06:30N 38°50' W 090°06'0 0.0
2018-May-12 05:57N 38°50' W 090°06'0 0.0
2018-May-12 05:29N 38°50' W 090°06'0 0.0
2018-May-12 04:53N 38°50' W 090°06'0 0.0
2018-May-12 04:29N 38°50' W 090°06'0 0.0
2018-May-12 04:00N 38°50' W 090°06'0 0.0
2018-May-12 03:27N 38°50' W 090°06'0 0.0
2018-May-12 02:59N 38°50' W 090°06'0 0.0
2018-May-12 02:29N 38°50' W 090°06'0 0.0
2018-May-12 01:59N 38°50' W 090°06'0 0.0
2018-May-12 01:30N 38°50' W 090°06'0 0.0
2018-May-12 01:00N 38°50' W 090°06'0 0.0
2018-May-11 23:34N 38°50' W 090°06'0 0.4
2018-May-11 23:30N 38°50' W 090°06'1 1.4
2018-May-11 23:00N 38°51' W 090°07'0 0.5
2018-May-11 22:29N 38°51' W 090°07'0 0.0
2018-May-11 22:00N 38°51' W 090°07'0 0.0
2018-May-11 21:30N 38°51' W 090°07'0 0.0
2018-May-11 20:59N 38°51' W 090°07'0 0.0
2018-May-11 20:30N 38°51' W 090°07'0 0.0
2018-May-11 20:00N 38°51' W 090°07'0 0.0
2018-May-11 19:30N 38°51' W 090°07'0 0.0
2018-May-11 19:00N 38°51' W 090°07'0 0.0
2018-May-11 18:23N 38°51' W 090°07'0 0.0
2018-May-11 18:00N 38°51' W 090°07'0 0.0
2018-May-11 17:22N 38°51' W 090°07'0 0.0
2018-May-11 17:00N 38°51' W 090°07'0 0.0
2018-May-11 16:30N 38°51' W 090°07'0 0.0
2018-May-11 16:00N 38°51' W 090°07'0 0.0
2018-May-11 15:29N 38°51' W 090°07'0 0.0
2018-May-11 15:00N 38°51' W 090°07'0 0.0
2018-May-11 14:26N 38°51' W 090°07'0 0.0
2018-May-11 14:00N 38°51' W 090°07'0 0.0
2018-May-11 13:30N 38°51' W 090°07'0 0.0
2018-May-11 13:00N 38°51' W 090°07'0 0.0
2018-May-11 12:30N 38°51' W 090°07'0 0.0
2018-May-11 12:00N 38°51' W 090°07'0 0.0
2018-May-11 11:30N 38°51' W 090°07'0 0.0
2018-May-11 11:00N 38°51' W 090°07'0 0.0
2018-May-11 10:30N 38°51' W 090°07'0 0.0
2018-May-11 10:00N 38°51' W 090°07'0 0.0
2018-May-11 09:30N 38°51' W 090°07'0 0.0
2018-May-11 09:00N 38°51' W 090°07'0 0.0
2018-May-11 08:30N 38°51' W 090°07'0 0.0
2018-May-11 08:00N 38°51' W 090°07'0 0.0
2018-May-11 07:30N 38°51' W 090°07'0 0.0
2018-May-11 07:00N 38°51' W 090°07'0 0.0
2018-May-11 06:30N 38°51' W 090°07'0 0.0
2018-May-11 06:00N 38°51' W 090°07'0 0.0
2018-May-11 05:30N 38°51' W 090°07'0 0.0
2018-May-11 05:00N 38°51' W 090°07'0 0.0
2018-May-11 04:30N 38°51' W 090°07'0 0.0
2018-May-11 04:00N 38°51' W 090°07'0 0.0
2018-May-11 03:30N 38°51' W 090°07'0 0.0
2018-May-11 03:00N 38°51' W 090°07'0 0.0
2018-May-11 02:30N 38°51' W 090°07'0 0.0
2018-May-11 02:00N 38°51' W 090°07'0 0.0
2018-May-11 01:30N 38°51' W 090°07'0 0.0
2018-May-11 01:00N 38°51' W 090°07'0 0.0
2018-May-11 00:30N 38°51' W 090°07'0 0.0
2018-May-10 23:52N 38°51' W 090°07'0 0.0
2018-May-10 23:27N 38°51' W 090°07'0 0.0
2018-May-10 21:44N 38°51' W 090°07'0 0.0
2018-May-10 21:30N 38°51' W 090°07'0 0.0
2018-May-10 21:00N 38°51' W 090°07'0 0.0
2018-May-10 20:29N 38°51' W 090°07'0 0.0
2018-May-10 19:58N 38°51' W 090°07'0 0.0
2018-May-10 19:30N 38°51' W 090°07'0 0.0
2018-May-10 19:00N 38°51' W 090°07'0 0.0
2018-May-10 18:30N 38°51' W 090°07'0 0.0
2018-May-10 18:00N 38°51' W 090°07'0 0.0
2018-May-10 17:30N 38°51' W 090°07'0 0.0
2018-May-10 17:00N 38°51' W 090°07'0 0.0
2018-May-10 16:30N 38°51' W 090°07'0 0.0
2018-May-10 16:00N 38°51' W 090°07'0 0.0
2018-May-10 15:30N 38°51' W 090°07'0 0.0
2018-May-10 14:59N 38°51' W 090°07'0 0.0
2018-May-10 14:30N 38°51' W 090°07'0 0.0
2018-May-10 14:00N 38°51' W 090°07'0 0.0
2018-May-10 13:30N 38°51' W 090°07'0 0.0
2018-May-10 13:00N 38°51' W 090°07'0 0.0
2018-May-10 12:28N 38°51' W 090°07'0 0.0
2018-May-10 12:00N 38°51' W 090°07'0 0.0
2018-May-10 11:30N 38°51' W 090°07'0 0.0
2018-May-10 11:00N 38°51' W 090°07'0 0.0
2018-May-10 10:30N 38°51' W 090°07'0 0.0
2018-May-10 10:00N 38°51' W 090°07'0 0.0
2018-May-10 09:28N 38°51' W 090°07'0 0.0
2018-May-10 09:00N 38°51' W 090°07'0 0.0
2018-May-10 08:30N 38°51' W 090°07'0 0.0
2018-May-10 08:00N 38°51' W 090°07'0 0.0
2018-May-10 07:30N 38°51' W 090°07'0 0.0
2018-May-10 07:00N 38°51' W 090°07'0 0.0
2018-May-10 06:30N 38°51' W 090°07'0 0.0
2018-May-10 06:00N 38°51' W 090°07'0 0.0
2018-May-10 05:30N 38°51' W 090°07'0 0.0
2018-May-10 05:00N 38°51' W 090°07'0 0.0
2018-May-10 04:30N 38°51' W 090°07'0 0.0
2018-May-10 04:00N 38°51' W 090°07'0 0.0
2018-May-10 03:30N 38°51' W 090°07'0 0.0
2018-May-10 03:00N 38°51' W 090°07'0 0.0
2018-May-10 02:30N 38°51' W 090°07'0 0.0
2018-May-10 02:00N 38°51' W 090°07'0 0.0
2018-May-10 01:30N 38°51' W 090°07'0 0.0
2018-May-10 01:00N 38°51' W 090°07'0 0.0
2018-May-10 00:30N 38°51' W 090°07'0 0.0
2018-May-10 00:00N 38°51' W 090°07'0 0.0
2018-May-09 23:30N 38°51' W 090°07'0 0.4
2018-May-09 23:00N 38°51' W 090°07'0 0.2
2018-May-09 22:30N 38°51' W 090°07'9 0.6
2018-May-09 08:14N 38°43' W 090°10'0 0.5
2018-May-09 07:59N 38°43' W 090°10'2 3.6
2018-May-09 07:30N 38°45' W 090°09'2 3.8
2018-May-09 06:53N 38°47' W 090°08'2 5.6
2018-May-09 06:30N 38°49' W 090°07'2 3.4
2018-May-09 05:58N 38°50' W 090°06'1 1.7
2018-May-09 05:30N 38°50' W 090°07'3 5.6
2018-May-09 04:59N 38°47' W 090°08'4 7.6
2018-May-09 04:28N 38°43' W 090°10'0 1.0
2018-May-09 04:00N 38°43' W 090°10'0 0.0
2018-May-09 03:30N 38°43' W 090°10'0 0.0
2018-May-09 03:00N 38°43' W 090°10'0 0.0
2018-May-09 02:24N 38°43' W 090°10'0 0.0
2018-May-09 01:59N 38°43' W 090°10'0 0.0
2018-May-09 01:17N 38°43' W 090°10'0 0.0
2018-May-09 00:58N 38°43' W 090°10'0 0.0
2018-May-09 00:30N 38°43' W 090°10'0 0.0
2018-May-08 23:58N 38°43' W 090°10'0 0.0
2018-May-08 23:30N 38°43' W 090°10'0 0.0
2018-May-08 22:50N 38°43' W 090°10'0 0.0
2018-May-08 22:25N 38°43' W 090°10'0 0.0
2018-May-08 21:58N 38°43' W 090°10'0 0.0
2018-May-08 21:23N 38°43' W 090°10'0 0.0
2018-May-08 21:00N 38°43' W 090°10'0 0.0
2018-May-08 20:30N 38°43' W 090°10'0 0.0
2018-May-08 19:59N 38°43' W 090°10'0 0.0
2018-May-08 19:28N 38°43' W 090°10'0 0.0
2018-May-08 18:59N 38°43' W 090°10'0 0.0
2018-May-08 18:30N 38°43' W 090°10'0 0.0
2018-May-08 17:57N 38°43' W 090°10'0 0.0
2018-May-08 17:23N 38°43' W 090°10'0 0.0
2018-May-08 17:00N 38°43' W 090°10'0 0.5
2018-May-08 16:23N 38°43' W 090°10'2 4.4
2018-May-08 16:00N 38°45' W 090°09'3 5.1
2018-May-08 15:30N 38°47' W 090°08'3 6.4
2018-May-08 15:00N 38°50' W 090°07'1 1.8
2018-May-08 14:30N 38°51' W 090°07'0 0.1
2018-May-08 14:00N 38°51' W 090°07'3 5.9
2018-May-08 13:30N 38°48' W 090°07'4 8.3
2018-May-08 13:00N 38°44' W 090°09'1 2.7
2018-May-08 12:29N 38°43' W 090°10'0 0.0
2018-May-07 23:26N 38°43' W 090°10'0 0.9
2018-May-07 23:00N 38°43' W 090°10'4 5.2
2018-May-07 22:14N 38°47' W 090°08'1 5.2
2018-May-07 22:00N 38°48' W 090°07'3 5.3
2018-May-07 21:30N 38°50' W 090°06'0 0.0
2018-May-07 21:00N 38°50' W 090°06'0 0.0
2018-May-07 20:30N 38°50' W 090°06'1 1.5
2018-May-07 20:01N 38°51' W 090°07'1 1.5
2018-May-07 19:28N 38°50' W 090°06'0 0.0
2018-May-07 19:00N 38°50' W 090°06'0 0.0
2018-May-07 18:29N 38°50' W 090°06'0 0.0
2018-May-07 17:59N 38°50' W 090°06'0 0.0
2018-May-07 17:29N 38°50' W 090°06'0 0.0
2018-May-07 16:59N 38°50' W 090°06'0 0.0
2018-May-07 16:29N 38°50' W 090°06'0 0.0
2018-May-07 15:58N 38°50' W 090°06'0 0.0
2018-May-07 15:30N 38°50' W 090°06'0 0.0
2018-May-07 15:00N 38°50' W 090°06'0 0.0
2018-May-07 14:29N 38°50' W 090°06'0 0.0
2018-May-07 13:57N 38°50' W 090°06'0 0.0
2018-May-07 13:30N 38°50' W 090°06'0 0.0
2018-May-07 12:57N 38°50' W 090°06'0 0.0
2018-May-07 12:28N 38°50' W 090°06'0 0.0
2018-May-07 12:00N 38°50' W 090°06'0 0.0
2018-May-07 10:44N 38°50' W 090°06'0 0.0
2018-May-07 10:29N 38°50' W 090°06'0 0.0
2018-May-07 09:59N 38°50' W 090°06'0 0.0
2018-May-07 09:30N 38°50' W 090°06'0 0.0
2018-May-07 08:58N 38°50' W 090°06'0 0.0
2018-May-07 08:30N 38°50' W 090°06'0 0.0
2018-May-07 08:00N 38°50' W 090°06'0 0.0
2018-May-07 07:26N 38°50' W 090°06'0 0.0
2018-May-07 06:59N 38°50' W 090°06'0 0.0
2018-May-07 06:30N 38°50' W 090°06'0 0.0
2018-May-07 06:00N 38°50' W 090°06'0 0.0
2018-May-07 05:30N 38°50' W 090°06'0 0.0
2018-May-07 04:56N 38°50' W 090°06'0 0.0
2018-May-07 04:30N 38°50' W 090°06'0 0.0
2018-May-07 04:00N 38°50' W 090°06'0 0.0
2018-May-07 03:25N 38°50' W 090°06'0 0.0
2018-May-07 03:00N 38°50' W 090°06'0 0.0
2018-May-07 02:30N 38°50' W 090°06'0 0.0
2018-May-07 01:57N 38°50' W 090°06'0 0.0
2018-May-07 01:30N 38°50' W 090°06'0 0.0
2018-May-07 00:58N 38°50' W 090°06'0 0.0
2018-May-07 00:30N 38°50' W 090°06'0 0.0
2018-May-07 00:00N 38°50' W 090°06'0 0.0
2018-May-06 23:28N 38°50' W 090°06'0 0.0
2018-May-06 22:57N 38°50' W 090°06'0 0.0
2018-May-06 21:51N 38°50' W 090°06'0 0.0
2018-May-06 21:25N 38°50' W 090°06'0 0.0
2018-May-06 20:46N 38°50' W 090°06'0 0.0
2018-May-06 20:26N 38°50' W 090°06'0 0.0
2018-May-06 20:00N 38°50' W 090°06'0 0.0
2018-May-06 19:23N 38°50' W 090°06'0 0.0
2018-May-06 18:59N 38°50' W 090°06'0 0.0
2018-May-06 18:02N 38°50' W 090°06'0 0.0
2018-May-06 18:00N 38°50' W 090°06'0 0.0
2018-May-06 17:28N 38°50' W 090°06'0 0.0
2018-May-06 16:58N 38°50' W 090°06'0 0.0
2018-May-06 16:28N 38°50' W 090°06'0 0.0
2018-May-06 16:00N 38°50' W 090°06'0 0.0
2018-May-06 15:27N 38°50' W 090°06'0 0.0
2018-May-06 14:59N 38°50' W 090°06'0 0.1
2018-May-06 14:30N 38°50' W 090°06'0 0.1
2018-May-06 14:00N 38°50' W 090°06'1 1.4
2018-May-06 13:30N 38°51' W 090°07'1 1.2
2018-May-06 13:00N 38°51' W 090°06'0 0.3
2018-May-06 12:30N 38°50' W 090°06'1 1.6
2018-May-06 12:00N 38°51' W 090°07'0 0.0
2018-May-06 11:30N 38°51' W 090°07'0 0.0
2018-May-06 11:00N 38°51' W 090°07'0 0.0
2018-May-06 10:30N 38°51' W 090°07'0 0.0
2018-May-06 10:00N 38°51' W 090°07'0 0.0
2018-May-06 09:30N 38°51' W 090°07'0 0.0
2018-May-06 09:00N 38°51' W 090°07'0 0.0
2018-May-06 08:30N 38°51' W 090°07'0 0.0
2018-May-06 08:00N 38°51' W 090°07'0 0.0
2018-May-06 07:30N 38°51' W 090°07'0 0.0
2018-May-06 07:00N 38°51' W 090°07'0 0.0
2018-May-06 06:29N 38°51' W 090°07'0 0.0
2018-May-06 06:00N 38°51' W 090°07'0 0.0
2018-May-06 05:30N 38°51' W 090°07'0 0.0
2018-May-06 05:00N 38°51' W 090°07'0 0.0
2018-May-06 04:29N 38°51' W 090°07'0 0.0
2018-May-06 04:00N 38°51' W 090°07'0 0.0
2018-May-06 03:30N 38°51' W 090°07'0 0.0
2018-May-06 03:00N 38°51' W 090°07'0 0.0
2018-May-06 02:30N 38°51' W 090°07'0 0.0
2018-May-06 02:00N 38°51' W 090°07'0 0.0
2018-May-06 01:30N 38°51' W 090°07'0 0.0
2018-May-06 01:00N 38°51' W 090°07'0 0.0
2018-May-06 00:30N 38°51' W 090°07'0 0.0
2018-May-06 00:00N 38°51' W 090°07'0 0.0
2018-May-05 23:30N 38°51' W 090°07'0 0.0
2018-May-05 23:00N 38°51' W 090°07'0 0.0
2018-May-05 22:30N 38°51' W 090°07'0 0.0
2018-May-05 22:00N 38°51' W 090°07'0 0.0
2018-May-05 21:30N 38°51' W 090°07'0 0.0
2018-May-05 21:00N 38°51' W 090°07'0 0.0
2018-May-05 20:30N 38°51' W 090°07'0 0.0
2018-May-05 20:00N 38°51' W 090°07'0 0.0
2018-May-05 19:30N 38°51' W 090°07'0 0.0
2018-May-05 19:00N 38°51' W 090°07'0 0.0
2018-May-05 18:30N 38°51' W 090°07'0 0.4
2018-May-05 18:00N 38°51' W 090°07'0 0.0
2018-May-05 17:30N 38°51' W 090°07'0 0.0
2018-May-05 17:00N 38°51' W 090°07'0 0.1
2018-May-05 14:12N 38°51' W 090°07'0 0.0
2018-May-05 14:00N 38°51' W 090°07'0 0.0
2018-May-05 13:30N 38°51' W 090°07'0 0.0
2018-May-05 13:00N 38°51' W 090°07'0 0.0
2018-May-05 12:30N 38°51' W 090°07'0 0.0
2018-May-05 12:00N 38°51' W 090°07'0 0.0
2018-May-05 11:30N 38°51' W 090°07'0 0.0
2018-May-05 11:00N 38°51' W 090°07'0 0.0
2018-May-05 10:30N 38°51' W 090°07'0 0.0
2018-May-05 10:00N 38°51' W 090°07'0 0.0
2018-May-05 09:30N 38°51' W 090°07'0 0.0
2018-May-05 09:00N 38°51' W 090°07'0 0.0
2018-May-05 08:30N 38°51' W 090°07'0 0.0
2018-May-05 08:00N 38°51' W 090°07'0 0.0
2018-May-05 07:30N 38°51' W 090°07'0 0.0
2018-May-05 07:00N 38°51' W 090°07'0 0.4
2018-May-05 06:30N 38°51' W 090°07'0 0.0
2018-May-05 06:00N 38°51' W 090°07'0 0.2
2018-May-05 05:30N 38°51' W 090°07'0 0.2
2018-May-05 05:00N 38°51' W 090°07'0 0.0
2018-May-05 04:30N 38°51' W 090°07'0 0.1
2018-May-05 03:58N 38°51' W 090°07'0 0.0
2018-May-05 03:20N 38°51' W 090°07'0 0.0
2018-May-05 02:58N 38°51' W 090°07'0 0.0
2018-May-04 23:05N 38°51' W 090°07'1 3.0
2018-May-04 22:54N 38°51' W 090°06'0 1.1
2018-May-04 22:29N 38°50' W 090°06'1 2.5
2018-May-04 22:00N 38°51' W 090°07'0 0.4
2018-May-04 21:30N 38°51' W 090°07'0 0.0
2018-May-04 21:00N 38°51' W 090°07'0 0.0
2018-May-04 20:30N 38°51' W 090°07'0 0.0
2018-May-04 20:00N 38°51' W 090°07'0 0.0
2018-May-04 19:30N 38°51' W 090°07'0 0.0
2018-May-04 19:00N 38°51' W 090°07'0 0.0
2018-May-04 18:30N 38°51' W 090°07'0 0.0
2018-May-04 17:59N 38°51' W 090°07'0 0.0
2018-May-04 17:30N 38°51' W 090°07'0 0.0
2018-May-04 17:00N 38°51' W 090°07'0 0.0
2018-May-04 16:30N 38°51' W 090°07'0 0.0
2018-May-04 16:00N 38°51' W 090°07'0 0.0
2018-May-04 15:30N 38°51' W 090°07'0 0.0
2018-May-04 14:59N 38°51' W 090°07'0 0.0
2018-May-04 14:30N 38°51' W 090°07'0 0.1
2018-May-04 14:00N 38°51' W 090°07'3 5.0
2018-May-04 13:30N 38°48' W 090°07'3 4.7
2018-May-04 12:57N 38°46' W 090°08'1 2.5
2018-May-04 12:30N 38°45' W 090°09'2 3.8
2018-May-04 12:00N 38°43' W 090°10'2 3.1
2018-May-04 11:30N 38°42' W 090°11'0 0.2
2018-May-04 10:35N 38°42' W 090°11'0 0.9
2018-May-04 10:30N 38°42' W 090°11'1 2.5
2018-May-04 10:00N 38°41' W 090°11'2 4.1
2018-May-04 09:30N 38°39' W 090°11'  
Track history (hours):
 
Tides and Currents Weather Stations Pressure Air Temp Water Temp Dewpoint Dewpoint Depression Visibility Wind Speed Wind Dir Waves Ship Positions

Kathy Azlin

Owner: Mganolia Marine Traqnsport Company, Vicksburg, MS. More information available from US FCC via Universal Licensing System and Coast Guard Vessel Documentation Center.

Last reported at 2018-May-13 21:40 UTC. Time now 2018-Jun-25 05:44 UTC.
Position N 39°02' W 090°35'.
Warning: this ship's position is 42 days out of date.

Length 33 m; draft 2.8 m.

Type: Towing. MMSI: 367615770.

Date/timePositionNaut miles runAvg speedWind from/ knotsBaromVisibWave heightAir tempDewpointWater temp
2018-May-13 21:40N 39°02' W 090°35'1 3.3
2018-May-13 21:30N 39°02' W 090°35'4 6.7
2018-May-13 20:58N 38°59' W 090°33'3 5.8
2018-May-13 20:30N 38°58' W 090°30'3 6.2
2018-May-13 20:00N 38°58' W 090°26'1 2.1
2018-May-13 19:30N 38°58' W 090°25'1 2.7
2018-May-13 18:59N 38°57' W 090°23'2 4.4
2018-May-13 18:28N 38°56' W 090°20'2 5.2
2018-May-13 18:00N 38°55' W 090°18'3 5.1
2018-May-13 17:30N 38°55' W 090°14'2 4.9
2018-May-13 17:00N 38°54' W 090°12'2 4.9
2018-May-13 16:30N 38°52' W 090°09'1 1.2
2018-May-13 16:00N 38°52' W 090°09'2 3.4
2018-May-13 15:30N 38°51' W 090°07'0 0.1
2018-May-13 15:00N 38°51' W 090°07'0 0.0
2018-May-13 14:30N 38°51' W 090°07'0 0.0
2018-May-13 14:00N 38°51' W 090°07'0 0.0
2018-May-13 13:30N 38°51' W 090°07'0 0.0
2018-May-13 12:59N 38°51' W 090°07'0 0.1
2018-May-13 12:30N 38°51' W 090°07'0 0.1
2018-May-13 12:00N 38°51' W 090°07'0 0.2
2018-May-13 11:30N 38°51' W 090°07'0 0.7
2018-May-13 11:00N 38°51' W 090°07'1 2.2
2018-May-13 10:29N 38°50' W 090°06'0 0.0
2018-May-13 09:59N 38°50' W 090°06'0 0.0
2018-May-13 09:30N 38°50' W 090°06'0 0.1
2018-May-13 09:00N 38°50' W 090°06'0 0.0
2018-May-13 08:30N 38°50' W 090°06'0 0.0
2018-May-13 08:00N 38°50' W 090°06'0 0.0
2018-May-13 07:30N 38°50' W 090°06'0 0.0
2018-May-13 07:00N 38°50' W 090°06'0 0.0
2018-May-13 06:30N 38°50' W 090°06'0 0.0
2018-May-13 06:00N 38°50' W 090°06'0 0.0
2018-May-13 05:30N 38°50' W 090°06'0 0.0
2018-May-13 05:00N 38°50' W 090°06'0 0.0
2018-May-13 04:30N 38°50' W 090°06'0 0.0
2018-May-13 04:00N 38°50' W 090°06'0 0.0
2018-May-13 03:30N 38°50' W 090°06'0 0.0
2018-May-13 03:00N 38°50' W 090°06'0 0.0
2018-May-13 02:30N 38°50' W 090°06'1 1.1
2018-May-13 01:44N 38°51' W 090°07'0 0.7
2018-May-13 01:30N 38°51' W 090°07'1 1.3
2018-May-13 00:50N 38°50' W 090°06'0 0.0
2018-May-13 00:30N 38°50' W 090°06'0 0.0
2018-May-13 00:00N 38°50' W 090°06'0 0.0
2018-May-12 23:30N 38°50' W 090°06'0 0.1
2018-May-12 23:00N 38°50' W 090°06'0 0.0
2018-May-12 22:28N 38°50' W 090°06'0 0.0
2018-May-12 22:00N 38°50' W 090°06'0 0.0
2018-May-12 21:29N 38°50' W 090°06'0 0.0
2018-May-12 21:00N 38°50' W 090°06'0 0.0
2018-May-12 20:30N 38°50' W 090°06'0 0.0
2018-May-12 20:00N 38°50' W 090°06'0 0.0
2018-May-12 19:30N 38°50' W 090°06'0 0.0
2018-May-12 18:57N 38°50' W 090°06'0 0.0
2018-May-12 18:27N 38°50' W 090°06'0 0.0
2018-May-12 17:53N 38°50' W 090°06'0 0.0
2018-May-12 17:30N 38°50' W 090°06'0 0.0
2018-May-12 16:59N 38°50' W 090°06'0 0.0
2018-May-12 16:30N 38°50' W 090°06'0 0.8
2018-May-12 16:00N 38°51' W 090°07'0 0.9
2018-May-12 15:30N 38°51' W 090°07'1 1.7
2018-May-12 14:59N 38°50' W 090°06'0 0.1
2018-May-12 14:29N 38°50' W 090°06'0 0.0
2018-May-12 13:59N 38°50' W 090°06'0 0.0
2018-May-12 13:29N 38°50' W 090°06'0 0.0
2018-May-12 13:00N 38°50' W 090°06'0 0.0
2018-May-12 12:27N 38°50' W 090°06'0 0.0
2018-May-12 11:59N 38°50' W 090°06'0 0.0
2018-May-12 11:30N 38°50' W 090°06'0 0.0
2018-May-12 11:00N 38°50' W 090°06'0 0.0
2018-May-12 10:27N 38°50' W 090°06'0 0.0
2018-May-12 09:59N 38°50' W 090°06'0 0.0
2018-May-12 09:29N 38°50' W 090°06'0 0.0
2018-May-12 08:59N 38°50' W 090°06'0 0.0
2018-May-12 08:30N 38°50' W 090°06'0 0.0
2018-May-12 08:00N 38°50' W 090°06'0 0.0
2018-May-12 07:29N 38°50' W 090°06'0 0.0
2018-May-12 07:00N 38°50' W 090°06'0 0.0
2018-May-12 06:30N 38°50' W 090°06'0 0.0
2018-May-12 05:57N 38°50' W 090°06'0 0.0
2018-May-12 05:29N 38°50' W 090°06'0 0.0
2018-May-12 04:53N 38°50' W 090°06'0 0.0
2018-May-12 04:29N 38°50' W 090°06'0 0.0
2018-May-12 04:00N 38°50' W 090°06'0 0.0
2018-May-12 03:27N 38°50' W 090°06'0 0.0
2018-May-12 02:59N 38°50' W 090°06'0 0.0
2018-May-12 02:29N 38°50' W 090°06'0 0.0
2018-May-12 01:59N 38°50' W 090°06'0 0.0
2018-May-12 01:30N 38°50' W 090°06'0 0.0
2018-May-12 01:00N 38°50' W 090°06'0 0.0
2018-May-11 23:34N 38°50' W 090°06'0 0.4
2018-May-11 23:30N 38°50' W 090°06'1 1.4
2018-May-11 23:00N 38°51' W 090°07'0 0.5
2018-May-11 22:29N 38°51' W 090°07'0 0.0
2018-May-11 22:00N 38°51' W 090°07'0 0.0
2018-May-11 21:30N 38°51' W 090°07'0 0.0
2018-May-11 20:59N 38°51' W 090°07'0 0.0
2018-May-11 20:30N 38°51' W 090°07'0 0.0
2018-May-11 20:00N 38°51' W 090°07'0 0.0
2018-May-11 19:30N 38°51' W 090°07'0 0.0
2018-May-11 19:00N 38°51' W 090°07'0 0.0
2018-May-11 18:23N 38°51' W 090°07'0 0.0
2018-May-11 18:00N 38°51' W 090°07'0 0.0
2018-May-11 17:22N 38°51' W 090°07'0 0.0
2018-May-11 17:00N 38°51' W 090°07'0 0.0
2018-May-11 16:30N 38°51' W 090°07'0 0.0
2018-May-11 16:00N 38°51' W 090°07'0 0.0
2018-May-11 15:29N 38°51' W 090°07'0 0.0
2018-May-11 15:00N 38°51' W 090°07'0 0.0
2018-May-11 14:26N 38°51' W 090°07'0 0.0
2018-May-11 14:00N 38°51' W 090°07'0 0.0
2018-May-11 13:30N 38°51' W 090°07'0 0.0
2018-May-11 13:00N 38°51' W 090°07'0 0.0
2018-May-11 12:30N 38°51' W 090°07'0 0.0
2018-May-11 12:00N 38°51' W 090°07'0 0.0
2018-May-11 11:30N 38°51' W 090°07'0 0.0
2018-May-11 11:00N 38°51' W 090°07'0 0.0
2018-May-11 10:30N 38°51' W 090°07'0 0.0
2018-May-11 10:00N 38°51' W 090°07'0 0.0
2018-May-11 09:30N 38°51' W 090°07'0 0.0
2018-May-11 09:00N 38°51' W 090°07'0 0.0
2018-May-11 08:30N 38°51' W 090°07'0 0.0
2018-May-11 08:00N 38°51' W 090°07'0 0.0
2018-May-11 07:30N 38°51' W 090°07'0 0.0
2018-May-11 07:00N 38°51' W 090°07'0 0.0
2018-May-11 06:30N 38°51' W 090°07'0 0.0
2018-May-11 06:00N 38°51' W 090°07'0 0.0
2018-May-11 05:30N 38°51' W 090°07'0 0.0
2018-May-11 05:00N 38°51' W 090°07'0 0.0
2018-May-11 04:30N 38°51' W 090°07'0 0.0
2018-May-11 04:00N 38°51' W 090°07'0 0.0
2018-May-11 03:30N 38°51' W 090°07'0 0.0
2018-May-11 03:00N 38°51' W 090°07'0 0.0
2018-May-11 02:30N 38°51' W 090°07'0 0.0
2018-May-11 02:00N 38°51' W 090°07'0 0.0
2018-May-11 01:30N 38°51' W 090°07'0 0.0
2018-May-11 01:00N 38°51' W 090°07'0 0.0
2018-May-11 00:30N 38°51' W 090°07'0 0.0
2018-May-10 23:52N 38°51' W 090°07'0 0.0
2018-May-10 23:27N 38°51' W 090°07'0 0.0
2018-May-10 21:44N 38°51' W 090°07'0 0.0
2018-May-10 21:30N 38°51' W 090°07'0 0.0
2018-May-10 21:00N 38°51' W 090°07'0 0.0
2018-May-10 20:29N 38°51' W 090°07'0 0.0
2018-May-10 19:58N 38°51' W 090°07'0 0.0
2018-May-10 19:30N 38°51' W 090°07'0 0.0
2018-May-10 19:00N 38°51' W 090°07'0 0.0
2018-May-10 18:30N 38°51' W 090°07'0 0.0
2018-May-10 18:00N 38°51' W 090°07'0 0.0
2018-May-10 17:30N 38°51' W 090°07'0 0.0
2018-May-10 17:00N 38°51' W 090°07'0 0.0
2018-May-10 16:30N 38°51' W 090°07'0 0.0
2018-May-10 16:00N 38°51' W 090°07'0 0.0
2018-May-10 15:30N 38°51' W 090°07'0 0.0
2018-May-10 14:59N 38°51' W 090°07'0 0.0
2018-May-10 14:30N 38°51' W 090°07'0 0.0
2018-May-10 14:00N 38°51' W 090°07'0 0.0
2018-May-10 13:30N 38°51' W 090°07'0 0.0
2018-May-10 13:00N 38°51' W 090°07'0 0.0
2018-May-10 12:28N 38°51' W 090°07'0 0.0
2018-May-10 12:00N 38°51' W 090°07'0 0.0
2018-May-10 11:30N 38°51' W 090°07'0 0.0
2018-May-10 11:00N 38°51' W 090°07'0 0.0
2018-May-10 10:30N 38°51' W 090°07'0 0.0
2018-May-10 10:00N 38°51' W 090°07'0 0.0
2018-May-10 09:28N 38°51' W 090°07'0 0.0
2018-May-10 09:00N 38°51' W 090°07'0 0.0
2018-May-10 08:30N 38°51' W 090°07'0 0.0
2018-May-10 08:00N 38°51' W 090°07'0 0.0
2018-May-10 07:30N 38°51' W 090°07'0 0.0
2018-May-10 07:00N 38°51' W 090°07'0 0.0
2018-May-10 06:30N 38°51' W 090°07'0 0.0
2018-May-10 06:00N 38°51' W 090°07'0 0.0
2018-May-10 05:30N 38°51' W 090°07'0 0.0
2018-May-10 05:00N 38°51' W 090°07'0 0.0
2018-May-10 04:30N 38°51' W 090°07'0 0.0
2018-May-10 04:00N 38°51' W 090°07'0 0.0
2018-May-10 03:30N 38°51' W 090°07'0 0.0
2018-May-10 03:00N 38°51' W 090°07'0 0.0
2018-May-10 02:30N 38°51' W 090°07'0 0.0
2018-May-10 02:00N 38°51' W 090°07'0 0.0
2018-May-10 01:30N 38°51' W 090°07'0 0.0
2018-May-10 01:00N 38°51' W 090°07'0 0.0
2018-May-10 00:30N 38°51' W 090°07'0 0.0
2018-May-10 00:00N 38°51' W 090°07'0 0.0
2018-May-09 23:30N 38°51' W 090°07'0 0.4
2018-May-09 23:00N 38°51' W 090°07'0 0.2
2018-May-09 22:30N 38°51' W 090°07'9 0.6
2018-May-09 08:14N 38°43' W 090°10'0 0.5
2018-May-09 07:59N 38°43' W 090°10'2 3.6
2018-May-09 07:30N 38°45' W 090°09'2 3.8
2018-May-09 06:53N 38°47' W 090°08'2 5.6
2018-May-09 06:30N 38°49' W 090°07'2 3.4
2018-May-09 05:58N 38°50' W 090°06'1 1.7
2018-May-09 05:30N 38°50' W 090°07'3 5.6
2018-May-09 04:59N 38°47' W 090°08'4 7.6
2018-May-09 04:28N 38°43' W 090°10'0 1.0
2018-May-09 04:00N 38°43' W 090°10'0 0.0
2018-May-09 03:30N 38°43' W 090°10'0 0.0
2018-May-09 03:00N 38°43' W 090°10'0 0.0
2018-May-09 02:24N 38°43' W 090°10'0 0.0
2018-May-09 01:59N 38°43' W 090°10'0 0.0
2018-May-09 01:17N 38°43' W 090°10'0 0.0
2018-May-09 00:58N 38°43' W 090°10'0 0.0
2018-May-09 00:30N 38°43' W 090°10'0 0.0
2018-May-08 23:58N 38°43' W 090°10'0 0.0
2018-May-08 23:30N 38°43' W 090°10'0 0.0
2018-May-08 22:50N 38°43' W 090°10'0 0.0
2018-May-08 22:25N 38°43' W 090°10'0 0.0
2018-May-08 21:58N 38°43' W 090°10'0 0.0
2018-May-08 21:23N 38°43' W 090°10'0 0.0
2018-May-08 21:00N 38°43' W 090°10'0 0.0
2018-May-08 20:30N 38°43' W 090°10'0 0.0
2018-May-08 19:59N 38°43' W 090°10'0 0.0
2018-May-08 19:28N 38°43' W 090°10'0 0.0
2018-May-08 18:59N 38°43' W 090°10'0 0.0
2018-May-08 18:30N 38°43' W 090°10'0 0.0
2018-May-08 17:57N 38°43' W 090°10'0 0.0
2018-May-08 17:23N 38°43' W 090°10'0 0.0
2018-May-08 17:00N 38°43' W 090°10'0 0.5
2018-May-08 16:23N 38°43' W 090°10'2 4.4
2018-May-08 16:00N 38°45' W 090°09'3 5.1
2018-May-08 15:30N 38°47' W 090°08'3 6.4
2018-May-08 15:00N 38°50' W 090°07'1 1.8
2018-May-08 14:30N 38°51' W 090°07'0 0.1
2018-May-08 14:00N 38°51' W 090°07'3 5.9
2018-May-08 13:30N 38°48' W 090°07'4 8.3
2018-May-08 13:00N 38°44' W 090°09'1 2.7
2018-May-08 12:29N 38°43' W 090°10'0 0.0
2018-May-07 23:26N 38°43' W 090°10'0 0.9
2018-May-07 23:00N 38°43' W 090°10'4 5.2
2018-May-07 22:14N 38°47' W 090°08'1 5.2
2018-May-07 22:00N 38°48' W 090°07'3 5.3
2018-May-07 21:30N 38°50' W 090°06'0 0.0
2018-May-07 21:00N 38°50' W 090°06'0 0.0
2018-May-07 20:30N 38°50' W 090°06'1 1.5
2018-May-07 20:01N 38°51' W 090°07'1 1.5
2018-May-07 19:28N 38°50' W 090°06'0 0.0
2018-May-07 19:00N 38°50' W 090°06'0 0.0
2018-May-07 18:29N 38°50' W 090°06'0 0.0
2018-May-07 17:59N 38°50' W 090°06'0 0.0
2018-May-07 17:29N 38°50' W 090°06'0 0.0
2018-May-07 16:59N 38°50' W 090°06'0 0.0
2018-May-07 16:29N 38°50' W 090°06'0 0.0
2018-May-07 15:58N 38°50' W 090°06'0 0.0
2018-May-07 15:30N 38°50' W 090°06'0 0.0
2018-May-07 15:00N 38°50' W 090°06'0 0.0
2018-May-07 14:29N 38°50' W 090°06'0 0.0
2018-May-07 13:57N 38°50' W 090°06'0 0.0
2018-May-07 13:30N 38°50' W 090°06'0 0.0
2018-May-07 12:57N 38°50' W 090°06'0 0.0
2018-May-07 12:28N 38°50' W 090°06'0 0.0
2018-May-07 12:00N 38°50' W 090°06'0 0.0
2018-May-07 10:44N 38°50' W 090°06'0 0.0
2018-May-07 10:29N 38°50' W 090°06'0 0.0
2018-May-07 09:59N 38°50' W 090°06'0 0.0
2018-May-07 09:30N 38°50' W 090°06'0 0.0
2018-May-07 08:58N 38°50' W 090°06'0 0.0
2018-May-07 08:30N 38°50' W 090°06'0 0.0
2018-May-07 08:00N 38°50' W 090°06'0 0.0
2018-May-07 07:26N 38°50' W 090°06'0 0.0
2018-May-07 06:59N 38°50' W 090°06'0 0.0
2018-May-07 06:30N 38°50' W 090°06'0 0.0
2018-May-07 06:00N 38°50' W 090°06'0 0.0
2018-May-07 05:30N 38°50' W 090°06'0 0.0
2018-May-07 04:56N 38°50' W 090°06'0 0.0
2018-May-07 04:30N 38°50' W 090°06'0 0.0
2018-May-07 04:00N 38°50' W 090°06'0 0.0
2018-May-07 03:25N 38°50' W 090°06'0 0.0
2018-May-07 03:00N 38°50' W 090°06'0 0.0
2018-May-07 02:30N 38°50' W 090°06'0 0.0
2018-May-07 01:57N 38°50' W 090°06'0 0.0
2018-May-07 01:30N 38°50' W 090°06'0 0.0
2018-May-07 00:58N 38°50' W 090°06'0 0.0
2018-May-07 00:30N 38°50' W 090°06'0 0.0
2018-May-07 00:00N 38°50' W 090°06'0 0.0
2018-May-06 23:28N 38°50' W 090°06'0 0.0
2018-May-06 22:57N 38°50' W 090°06'0 0.0
2018-May-06 21:51N 38°50' W 090°06'0 0.0
2018-May-06 21:25N 38°50' W 090°06'0 0.0
2018-May-06 20:46N 38°50' W 090°06'0 0.0
2018-May-06 20:26N 38°50' W 090°06'0 0.0
2018-May-06 20:00N 38°50' W 090°06'0 0.0
2018-May-06 19:23N 38°50' W 090°06'0 0.0
2018-May-06 18:59N 38°50' W 090°06'0 0.0
2018-May-06 18:02N 38°50' W 090°06'0 0.0
2018-May-06 18:00N 38°50' W 090°06'0 0.0
2018-May-06 17:28N 38°50' W 090°06'0 0.0
2018-May-06 16:58N 38°50' W 090°06'0 0.0
2018-May-06 16:28N 38°50' W 090°06'0 0.0
2018-May-06 16:00N 38°50' W 090°06'0 0.0
2018-May-06 15:27N 38°50' W 090°06'0 0.0
2018-May-06 14:59N 38°50' W 090°06'0 0.1
2018-May-06 14:30N 38°50' W 090°06'0 0.1
2018-May-06 14:00N 38°50' W 090°06'1 1.4
2018-May-06 13:30N 38°51' W 090°07'1 1.2
2018-May-06 13:00N 38°51' W 090°06'0 0.3
2018-May-06 12:30N 38°50' W 090°06'1 1.6
2018-May-06 12:00N 38°51' W 090°07'0 0.0
2018-May-06 11:30N 38°51' W 090°07'0 0.0
2018-May-06 11:00N 38°51' W 090°07'0 0.0
2018-May-06 10:30N 38°51' W 090°07'0 0.0
2018-May-06 10:00N 38°51' W 090°07'0 0.0
2018-May-06 09:30N 38°51' W 090°07'0 0.0
2018-May-06 09:00N 38°51' W 090°07'0 0.0
2018-May-06 08:30N 38°51' W 090°07'0 0.0
2018-May-06 08:00N 38°51' W 090°07'0 0.0
2018-May-06 07:30N 38°51' W 090°07'0 0.0
2018-May-06 07:00N 38°51' W 090°07'0 0.0
2018-May-06 06:29N 38°51' W 090°07'0 0.0
2018-May-06 06:00N 38°51' W 090°07'0 0.0
2018-May-06 05:30N 38°51' W 090°07'0 0.0
2018-May-06 05:00N 38°51' W 090°07'0 0.0
2018-May-06 04:29N 38°51' W 090°07'0 0.0
2018-May-06 04:00N 38°51' W 090°07'0 0.0
2018-May-06 03:30N 38°51' W 090°07'0 0.0
2018-May-06 03:00N 38°51' W 090°07'0 0.0
2018-May-06 02:30N 38°51' W 090°07'0 0.0
2018-May-06 02:00N 38°51' W 090°07'0 0.0
2018-May-06 01:30N 38°51' W 090°07'0 0.0
2018-May-06 01:00N 38°51' W 090°07'0 0.0
2018-May-06 00:30N 38°51' W 090°07'0 0.0
2018-May-06 00:00N 38°51' W 090°07'0 0.0
2018-May-05 23:30N 38°51' W 090°07'0 0.0
2018-May-05 23:00N 38°51' W 090°07'0 0.0
2018-May-05 22:30N 38°51' W 090°07'0 0.0
2018-May-05 22:00N 38°51' W 090°07'0 0.0
2018-May-05 21:30N 38°51' W 090°07'0 0.0
2018-May-05 21:00N 38°51' W 090°07'0 0.0
2018-May-05 20:30N 38°51' W 090°07'0 0.0
2018-May-05 20:00N 38°51' W 090°07'0 0.0
2018-May-05 19:30N 38°51' W 090°07'0 0.0
2018-May-05 19:00N 38°51' W 090°07'0 0.0
2018-May-05 18:30N 38°51' W 090°07'0 0.4
2018-May-05 18:00N 38°51' W 090°07'0 0.0
2018-May-05 17:30N 38°51' W 090°07'0 0.0
2018-May-05 17:00N 38°51' W 090°07'0 0.1
2018-May-05 14:12N 38°51' W 090°07'0 0.0
2018-May-05 14:00N 38°51' W 090°07'0 0.0
2018-May-05 13:30N 38°51' W 090°07'0 0.0
2018-May-05 13:00N 38°51' W 090°07'0 0.0
2018-May-05 12:30N 38°51' W 090°07'0 0.0
2018-May-05 12:00N 38°51' W 090°07'0 0.0
2018-May-05 11:30N 38°51' W 090°07'0 0.0
2018-May-05 11:00N 38°51' W 090°07'0 0.0
2018-May-05 10:30N 38°51' W 090°07'0 0.0
2018-May-05 10:00N 38°51' W 090°07'0 0.0
2018-May-05 09:30N 38°51' W 090°07'0 0.0
2018-May-05 09:00N 38°51' W 090°07'0 0.0
2018-May-05 08:30N 38°51' W 090°07'0 0.0
2018-May-05 08:00N 38°51' W 090°07'0 0.0
2018-May-05 07:30N 38°51' W 090°07'0 0.0
2018-May-05 07:00N 38°51' W 090°07'0 0.4
2018-May-05 06:30N 38°51' W 090°07'0 0.0
2018-May-05 06:00N 38°51' W 090°07'0 0.2
2018-May-05 05:30N 38°51' W 090°07'0 0.2
2018-May-05 05:00N 38°51' W 090°07'0 0.0
2018-May-05 04:30N 38°51' W 090°07'0 0.1
2018-May-05 03:58N 38°51' W 090°07'0 0.0
2018-May-05 03:20N 38°51' W 090°07'0 0.0
2018-May-05 02:58N 38°51' W 090°07'0 0.0
2018-May-04 23:05N 38°51' W 090°07'1 3.0
2018-May-04 22:54N 38°51' W 090°06'0 1.1
2018-May-04 22:29N 38°50' W 090°06'1 2.5
2018-May-04 22:00N 38°51' W 090°07'0 0.4
2018-May-04 21:30N 38°51' W 090°07'0 0.0
2018-May-04 21:00N 38°51' W 090°07'0 0.0
2018-May-04 20:30N 38°51' W 090°07'0 0.0
2018-May-04 20:00N 38°51' W 090°07'0 0.0
2018-May-04 19:30N 38°51' W 090°07'0 0.0
2018-May-04 19:00N 38°51' W 090°07'0 0.0
2018-May-04 18:30N 38°51' W 090°07'0 0.0
2018-May-04 17:59N 38°51' W 090°07'0 0.0
2018-May-04 17:30N 38°51' W 090°07'0 0.0
2018-May-04 17:00N 38°51' W 090°07'0 0.0
2018-May-04 16:30N 38°51' W 090°07'0 0.0
2018-May-04 16:00N 38°51' W 090°07'0 0.0
2018-May-04 15:30N 38°51' W 090°07'0 0.0
2018-May-04 14:59N 38°51' W 090°07'0 0.0
2018-May-04 14:30N 38°51' W 090°07'0 0.1
2018-May-04 14:00N 38°51' W 090°07'3 5.0
2018-May-04 13:30N 38°48' W 090°07'3 4.7
2018-May-04 12:57N 38°46' W 090°08'1 2.5
2018-May-04 12:30N 38°45' W 090°09'2 3.8
2018-May-04 12:00N 38°43' W 090°10'2 3.1
2018-May-04 11:30N 38°42' W 090°11'0 0.2
2018-May-04 10:35N 38°42' W 090°11'0 0.9
2018-May-04 10:30N 38°42' W 090°11'1 2.5
2018-May-04 10:00N 38°41' W 090°11'2 4.1
2018-May-04 09:30N 38°39' W 090°11'  

Dump ship's entire track history